KENS weather

McConnaughhay's Field
Griffithville, Arkansas, United States

Public forecast

Using degrees Fahrenheit for public forecast. Weather courtesy of forecast.io.

Closest aviation weather report (METAR) to McConnaughhay's Field

Closest report is Searcy Municipal Airport, 8.2 nm (15.2 km) NW. Retrieved 2019/10/15 04:56 UTC (25 minutes ago):

KSRC 150456Z AUTO 00000KT 10SM CLR 12/12 A3004 RMK AO2 SLP174 T01170117 402280056

Closest aviation forecast (TAF) to McConnaughhay's Field

Forecast is more than 12 hours old.

Closest forecast is Little Rock Air Force Base, 27.1 nm (50.2 km) WSW. Retrieved 2019-10-12 23:09 UTC (2 days ago):

TAF TAF KLRF 112300Z 1123/1305 34006KT 9999 FEW050 BKN080 QNH3008INS BECMG 1202/1203 34009KT 9999 SKC QNH3021INS TX15/1123Z TN05/1212Z LAST NO AMDS AFT 1113 NEXT 1507